createdAt,value
2018-11-03T00:00:46.297Z,9.88
2018-11-03T00:03:14.711Z,9.96
2018-11-03T00:05:43.377Z,10.04
2018-11-03T00:08:11.804Z,10.00
2018-11-03T00:10:55.085Z,9.96
2018-11-03T00:13:23.790Z,9.97
2018-11-03T00:15:52.167Z,9.93
2018-11-03T00:18:20.784Z,9.79
2018-11-03T00:20:49.140Z,9.77
2018-11-03T00:23:17.509Z,9.86
2018-11-03T00:25:46.144Z,9.85
2018-11-03T00:28:14.508Z,9.82
2018-11-03T00:30:42.928Z,9.78
2018-11-03T00:33:11.582Z,9.76
2018-11-03T00:35:39.968Z,9.73
2018-11-03T00:38:08.396Z,9.84
2018-11-03T00:40:36.862Z,9.87
2018-11-03T00:43:06.225Z,9.83
2018-11-03T00:45:34.597Z,9.88
2018-11-03T00:48:03.016Z,10.02
2018-11-03T00:50:31.567Z,9.73
2018-11-03T00:52:59.928Z,9.64
2018-11-03T00:55:29.022Z,9.53
2018-11-03T00:57:57.763Z,9.37
2018-11-03T01:00:26.769Z,9.26
2018-11-03T01:02:55.140Z,9.27
2018-11-03T01:05:25.037Z,8.98
2018-11-03T01:07:55.022Z,9.00
2018-11-03T01:10:24.101Z,9.03
2018-11-03T01:12:52.465Z,8.98
2018-11-03T01:15:27.402Z,8.99
2018-11-03T01:17:55.797Z,8.89
2018-11-03T01:20:26.096Z,8.76
2018-11-03T01:22:54.648Z,8.82
2018-11-03T01:25:24.319Z,8.74
2018-11-03T01:30:30.204Z,8.64
2018-11-03T01:32:59.079Z,8.60
2018-11-03T01:35:27.465Z,8.63
2018-11-03T01:37:56.073Z,8.77
2018-11-03T01:40:29.706Z,8.75
2018-11-03T01:42:58.958Z,8.83
2018-11-03T01:45:27.960Z,8.86
2018-11-03T01:47:56.616Z,8.80
2018-11-03T01:50:25.063Z,8.78
2018-11-03T01:52:53.687Z,8.73
2018-11-03T01:55:22.420Z,8.71
2018-11-03T01:57:50.719Z,8.64
2018-11-03T02:00:19.477Z,8.64
2018-11-03T02:02:48.142Z,8.61
2018-11-03T02:05:16.622Z,8.53
2018-11-03T02:07:45.959Z,8.52
2018-11-03T02:10:14.700Z,8.45
2018-11-03T02:12:43.056Z,8.39
2018-11-03T02:15:11.436Z,8.42
2018-11-03T02:17:40.034Z,8.31
2018-11-03T02:20:09.769Z,8.30
2018-11-03T02:22:39.246Z,8.28
2018-11-03T02:25:08.009Z,8.21
2018-11-03T02:27:37.040Z,8.23
2018-11-03T02:30:07.796Z,8.29
2018-11-03T02:32:36.448Z,8.37
2018-11-03T02:35:06.320Z,8.39
2018-11-03T02:37:34.827Z,8.41
2018-11-03T02:40:03.562Z,8.43
2018-11-03T02:42:31.941Z,8.42
2018-11-03T02:45:00.601Z,8.39
2018-11-03T02:47:29.088Z,8.35
2018-11-03T02:49:57.588Z,8.36
2018-11-03T02:52:26.975Z,8.44
2018-11-03T02:54:55.425Z,8.42
2018-11-03T02:57:24.366Z,8.49
2018-11-03T02:59:53.064Z,8.37
2018-11-03T03:02:22.127Z,8.37
2018-11-03T03:04:50.557Z,8.37
2018-11-03T03:07:19.352Z,8.39
2018-11-03T03:09:47.951Z,8.35
2018-11-03T03:12:17.200Z,8.20
2018-11-03T03:14:45.520Z,8.31
2018-11-03T03:17:14.144Z,8.24
2018-11-03T03:19:42.840Z,8.18
2018-11-03T03:22:11.218Z,8.23
2018-11-03T03:24:40.084Z,8.32
2018-11-03T03:27:09.111Z,8.34
2018-11-03T03:29:38.287Z,8.37
2018-11-03T03:32:08.273Z,8.42
2018-11-03T03:34:36.702Z,8.28
2018-11-03T03:37:05.615Z,8.36
2018-11-03T03:39:34.567Z,8.24
2018-11-03T03:42:06.679Z,8.25
2018-11-03T03:44:35.654Z,8.22
2018-11-03T03:47:04.052Z,8.29
2018-11-03T03:49:32.779Z,8.40
2018-11-03T03:52:02.334Z,8.43
2018-11-03T03:54:31.047Z,8.47
2018-11-03T03:57:00.086Z,8.66
2018-11-03T03:59:28.841Z,8.65
2018-11-03T04:01:57.258Z,8.72
2018-11-03T04:04:25.652Z,8.68
2018-11-03T04:06:54.733Z,8.67
2018-11-03T04:09:23.131Z,8.69
2018-11-03T04:11:51.737Z,8.70
2018-11-03T04:14:20.132Z,8.78
2018-11-03T04:16:48.540Z,8.76
2018-11-03T04:19:16.975Z,8.81
2018-11-03T04:21:46.017Z,8.62
2018-11-03T04:24:15.312Z,8.62
2018-11-03T04:26:43.751Z,8.54
2018-11-03T04:29:12.041Z,8.64
2018-11-03T04:31:43.179Z,8.74
2018-11-03T04:34:11.552Z,8.64
2018-11-03T04:36:39.921Z,8.59
2018-11-03T04:39:08.504Z,8.63
2018-11-03T04:41:37.029Z,8.67
2018-11-03T04:44:05.440Z,8.56
2018-11-03T04:46:33.859Z,8.68
2018-11-03T04:49:03.796Z,8.49
2018-11-03T04:51:33.716Z,8.49
2018-11-03T04:54:02.172Z,8.50
2018-11-03T04:56:31.017Z,8.41
2018-11-03T04:58:59.386Z,8.43
2018-11-03T05:01:28.617Z,8.33
2018-11-03T05:03:56.973Z,8.30
2018-11-03T05:06:25.742Z,8.28
2018-11-03T05:08:54.421Z,8.36
2018-11-03T05:11:22.790Z,8.33
2018-11-03T05:13:51.247Z,8.30
2018-11-03T05:16:19.890Z,8.26
2018-11-03T05:18:48.885Z,8.23
2018-11-03T05:21:17.627Z,8.17
2018-11-03T05:23:46.732Z,8.17
2018-11-03T05:26:15.216Z,8.12
2018-11-03T05:28:43.680Z,8.26
2018-11-03T05:31:12.462Z,8.16
2018-11-03T05:33:41.475Z,8.25
2018-11-03T05:36:09.833Z,8.20
2018-11-03T05:38:38.530Z,8.26
2018-11-03T05:41:07.228Z,8.24
2018-11-03T05:43:36.243Z,8.21
2018-11-03T05:46:04.733Z,8.19
2018-11-03T05:48:33.490Z,8.17
2018-11-03T05:51:02.609Z,8.20
2018-11-03T05:53:31.411Z,8.31
2018-11-03T05:55:59.768Z,8.26
2018-11-03T05:58:28.768Z,8.28
2018-11-03T06:00:57.668Z,8.32
2018-11-03T06:03:26.898Z,8.27
2018-11-03T06:05:57.226Z,8.34
2018-11-03T06:08:26.808Z,8.32
2018-11-03T06:10:55.806Z,8.41
2018-11-03T06:13:24.521Z,8.39
2018-11-03T06:15:53.165Z,8.48
2018-11-03T06:18:21.597Z,8.33
2018-11-03T06:20:50.281Z,8.47
2018-11-03T06:23:18.986Z,8.40
2018-11-03T06:25:48.946Z,8.48
2018-11-03T06:28:18.267Z,8.52
2018-11-03T06:30:46.877Z,8.56
2018-11-03T06:33:15.306Z,8.53
2018-11-03T06:35:43.847Z,8.64
2018-11-03T06:38:12.807Z,8.81
2018-11-03T06:40:41.587Z,8.76
2018-11-03T06:43:10.271Z,8.68
2018-11-03T06:45:39.894Z,8.68
2018-11-03T06:48:09.372Z,8.67
2018-11-03T06:50:38.124Z,8.82
2018-11-03T06:53:06.599Z,8.99
2018-11-03T06:55:35.017Z,9.00
2018-11-03T06:58:03.395Z,8.96
2018-11-03T07:00:32.287Z,9.09
2018-11-03T07:03:01.952Z,9.02
2018-11-03T07:05:30.400Z,8.97
2018-11-03T07:07:58.860Z,8.96
2018-11-03T07:10:28.534Z,9.01
2018-11-03T07:12:57.310Z,9.01
2018-11-03T07:15:25.878Z,9.16
2018-11-03T07:17:54.760Z,9.16
2018-11-03T07:20:24.136Z,9.22
2018-11-03T07:22:52.453Z,9.31
2018-11-03T07:25:20.784Z,9.40
2018-11-03T07:27:49.903Z,9.36
2018-11-03T07:30:18.463Z,9.34
2018-11-03T07:32:48.708Z,9.38
2018-11-03T07:35:17.733Z,9.27
2018-11-03T07:37:47.564Z,9.25
2018-11-03T07:40:16.579Z,9.34
2018-11-03T07:42:46.166Z,9.43
2018-11-03T07:45:14.840Z,9.60
2018-11-03T07:47:44.291Z,9.66
2018-11-03T07:50:13.285Z,9.64
2018-11-03T07:52:43.356Z,9.64
2018-11-03T07:55:13.040Z,9.76
2018-11-03T07:57:42.419Z,9.67
2018-11-03T08:00:13.104Z,9.63
2018-11-03T08:02:42.023Z,9.56
2018-11-03T08:05:11.368Z,9.50
2018-11-03T08:07:39.874Z,9.60
2018-11-03T08:10:09.883Z,9.45
2018-11-03T08:12:38.279Z,9.51
2018-11-03T08:15:08.429Z,9.56
2018-11-03T08:17:36.761Z,9.61
2018-11-03T08:20:09.183Z,9.61
2018-11-03T08:22:38.252Z,9.64
2018-11-03T08:25:07.298Z,9.65
2018-11-03T08:27:36.067Z,9.69
2018-11-03T08:30:06.557Z,9.61
2018-11-03T08:32:35.457Z,9.74
2018-11-03T08:35:04.475Z,9.84
2018-11-03T08:37:33.236Z,9.74
2018-11-03T08:40:02.128Z,9.75
2018-11-03T08:42:30.524Z,9.79
2018-11-03T08:44:58.923Z,9.68
2018-11-03T08:47:27.537Z,9.71
2018-11-03T08:49:55.890Z,10.02
2018-11-03T08:52:24.569Z,10.18
2018-11-03T08:54:53.265Z,10.15
2018-11-03T08:57:21.950Z,10.13
2018-11-03T08:59:50.656Z,10.05
2018-11-03T09:02:19.064Z,10.30
2018-11-03T09:04:48.402Z,10.39
2018-11-03T09:07:16.891Z,10.38
2018-11-03T09:09:45.321Z,10.38
2018-11-03T09:12:14.223Z,10.44
2018-11-03T09:14:42.757Z,10.53
2018-11-03T09:17:11.065Z,10.71
2018-11-03T09:19:40.123Z,11.02
2018-11-03T09:22:08.406Z,11.15
2018-11-03T09:24:37.380Z,11.04
2018-11-03T09:27:06.427Z,11.04
2018-11-03T09:29:34.903Z,10.83
2018-11-03T09:32:04.031Z,11.13
2018-11-03T09:34:32.446Z,11.10
2018-11-03T09:37:01.635Z,11.21
2018-11-03T09:39:30.015Z,11.49
2018-11-03T09:41:59.563Z,11.33
2018-11-03T09:44:28.673Z,11.14
2018-11-03T09:46:57.599Z,11.18
2018-11-03T09:49:26.130Z,11.24
2018-11-03T09:51:54.588Z,11.35
2018-11-03T09:54:23.510Z,11.29
2018-11-03T09:56:52.740Z,11.31
2018-11-03T09:59:21.415Z,11.30
2018-11-03T10:01:49.864Z,11.11
2018-11-03T10:04:19.044Z,11.10
2018-11-03T10:06:47.534Z,11.12
2018-11-03T10:09:16.249Z,11.21
2018-11-03T10:11:44.718Z,11.61
2018-11-03T10:14:13.510Z,11.40
2018-11-03T10:16:41.919Z,11.45
2018-11-03T10:19:12.220Z,11.76
2018-11-03T10:21:42.395Z,11.51
2018-11-03T10:24:10.782Z,11.54
2018-11-03T10:26:39.282Z,11.58
2018-11-03T10:29:07.773Z,11.72
2018-11-03T10:31:36.190Z,11.75
2018-11-03T10:34:05.300Z,11.95
2018-11-03T10:36:33.800Z,12.10
2018-11-03T10:39:02.386Z,12.48
2018-11-03T10:41:30.780Z,12.78
2018-11-03T10:43:59.511Z,12.68
2018-11-03T10:49:05.437Z,11.90
2018-11-03T10:51:34.304Z,12.20
2018-11-03T10:54:02.790Z,12.53
2018-11-03T10:56:31.545Z,12.72
2018-11-03T10:58:59.930Z,12.76
2018-11-03T11:01:34.547Z,12.71
2018-11-03T11:04:09.035Z,12.89
2018-11-03T11:06:43.150Z,12.94
2018-11-03T11:09:17.166Z,13.24
2018-11-03T11:11:51.311Z,13.18
2018-11-03T11:14:20.245Z,13.80
2018-11-03T11:16:49.499Z,14.10
2018-11-03T11:19:18.713Z,14.01
2018-11-03T11:21:47.674Z,14.16
2018-11-03T11:24:16.389Z,14.28
2018-11-03T11:26:45.430Z,13.91
2018-11-03T11:29:15.443Z,13.88
2018-11-03T11:31:44.967Z,14.16
2018-11-03T11:34:13.467Z,14.28
2018-11-03T11:36:41.964Z,14.41
2018-11-03T11:39:11.262Z,14.71
2018-11-03T11:41:39.704Z,15.01
2018-11-03T11:44:11.185Z,15.19
2018-11-03T11:46:39.570Z,15.22
2018-11-03T11:49:08.522Z,15.20
2018-11-03T11:51:36.962Z,15.65
2018-11-03T11:54:06.958Z,16.17
2018-11-03T11:56:35.434Z,16.32
2018-11-03T11:59:04.388Z,16.39
2018-11-03T12:01:33.124Z,16.23
2018-11-03T12:04:01.868Z,16.10
2018-11-03T12:06:30.336Z,16.31
2018-11-03T12:09:00.156Z,16.16
2018-11-03T12:11:29.370Z,15.96
2018-11-03T12:13:58.283Z,16.24
2018-11-03T12:16:26.694Z,15.48
2018-11-03T12:18:57.598Z,15.75
2018-11-03T12:21:26.420Z,15.09
2018-11-03T12:23:55.003Z,15.69
2018-11-03T12:26:24.162Z,15.84
2018-11-03T12:28:54.794Z,16.07
2018-11-03T12:31:23.438Z,16.17
2018-11-03T12:33:52.085Z,16.11
2018-11-03T12:36:23.052Z,15.67
2018-11-03T12:38:52.441Z,15.08
2018-11-03T12:41:21.490Z,15.32
2018-11-03T12:43:52.081Z,15.71
2018-11-03T12:46:23.143Z,15.94
2018-11-03T12:48:51.625Z,15.76
2018-11-03T12:51:20.521Z,15.58
2018-11-03T12:53:49.043Z,15.64
2018-11-03T12:56:18.462Z,15.51
2018-11-03T12:58:47.094Z,15.34
2018-11-03T13:01:15.700Z,15.44
2018-11-03T13:03:44.544Z,15.41
2018-11-03T13:06:13.448Z,15.19
2018-11-03T13:08:42.013Z,14.81
2018-11-03T13:11:10.677Z,14.72
2018-11-03T13:13:39.120Z,15.06
2018-11-03T13:16:08.757Z,14.88
2018-11-03T13:18:37.359Z,15.23
2018-11-03T13:21:06.495Z,15.57
2018-11-03T13:23:36.410Z,15.83
2018-11-03T13:26:05.810Z,15.49
2018-11-03T13:28:34.427Z,15.23
2018-11-03T13:31:02.915Z,15.09
2018-11-03T13:33:31.423Z,14.98
2018-11-03T13:36:00.012Z,15.08
2018-11-03T13:38:29.351Z,14.82
2018-11-03T13:40:57.942Z,14.75
2018-11-03T13:43:26.535Z,14.73
2018-11-03T13:45:54.947Z,14.59
2018-11-03T13:48:23.284Z,14.81
2018-11-03T13:50:51.883Z,14.81
2018-11-03T13:53:21.469Z,14.65
2018-11-03T13:55:50.187Z,14.47
2018-11-03T13:58:18.922Z,14.49
2018-11-03T14:00:48.145Z,14.33
2018-11-03T14:03:17.206Z,14.42
2018-11-03T14:05:45.988Z,14.20
2018-11-03T14:08:14.348Z,13.98
2018-11-03T14:10:43.183Z,14.04
2018-11-03T14:13:12.224Z,14.22
2018-11-03T14:15:40.656Z,14.09
2018-11-03T14:18:09.057Z,14.02
2018-11-03T14:20:37.487Z,14.35
2018-11-03T14:23:23.392Z,14.53
2018-11-03T14:25:51.740Z,14.34
2018-11-03T14:28:20.556Z,14.50
2018-11-03T14:30:49.215Z,14.47
2018-11-03T14:33:17.605Z,14.28
2018-11-03T14:35:46.475Z,14.17
2018-11-03T14:38:14.955Z,13.86
2018-11-03T14:40:43.645Z,13.80
2018-11-03T14:43:13.754Z,13.79
2018-11-03T14:45:43.063Z,13.60
2018-11-03T14:48:11.890Z,13.55
2018-11-03T14:50:40.370Z,13.48
2018-11-03T14:53:09.052Z,13.38
2018-11-03T14:55:37.761Z,13.34
2018-11-03T14:58:06.629Z,13.27
2018-11-03T15:00:37.032Z,13.27
2018-11-03T15:03:07.149Z,13.22
2018-11-03T15:05:36.095Z,13.06
2018-11-03T15:08:05.899Z,12.83
2018-11-03T15:10:34.764Z,12.80
2018-11-03T15:13:03.222Z,12.69
2018-11-03T15:15:31.812Z,12.65
2018-11-03T15:18:02.284Z,12.61
2018-11-03T15:20:31.610Z,12.68
2018-11-03T15:23:00.476Z,12.63
2018-11-03T15:25:35.526Z,12.58
2018-11-03T15:28:07.412Z,12.61
2018-11-03T16:03:27.097Z,11.97
2018-11-03T16:05:56.415Z,12.00
2018-11-03T16:08:25.065Z,11.94
2018-11-03T16:10:54.924Z,11.98
2018-11-03T16:13:24.104Z,12.02
2018-11-03T16:28:19.250Z,12.11
2018-11-03T16:30:47.757Z,12.14
2018-11-03T16:33:16.697Z,12.03
2018-11-03T16:35:45.611Z,11.98
2018-11-03T16:38:14.506Z,11.90
2018-11-03T16:40:44.499Z,11.86
2018-11-03T16:43:13.440Z,11.97
2018-11-03T16:45:42.139Z,11.95
2018-11-03T16:48:10.671Z,11.92
2018-11-03T16:50:39.359Z,11.92
2018-11-03T16:53:08.410Z,11.85
2018-11-03T16:55:37.334Z,11.94
2018-11-03T16:58:05.934Z,12.01
2018-11-03T17:00:34.592Z,11.96
2018-11-03T17:03:03.191Z,11.92
2018-11-03T17:05:31.899Z,11.85
2018-11-03T17:08:00.518Z,11.90
2018-11-03T17:10:28.999Z,11.86
2018-11-03T17:12:57.946Z,11.90
2018-11-03T17:15:26.716Z,11.84
2018-11-03T17:17:55.363Z,11.86
2018-11-03T17:20:23.798Z,11.83
2018-11-03T17:22:53.846Z,11.86
2018-11-03T17:25:23.672Z,11.84
2018-11-03T17:27:52.103Z,11.84
2018-11-03T17:30:20.854Z,12.03
2018-11-03T17:32:49.742Z,12.15
2018-11-03T17:35:18.250Z,12.10
2018-11-03T17:37:47.004Z,12.19
2018-11-03T17:40:16.296Z,12.20
2018-11-03T17:42:45.009Z,12.19
2018-11-03T17:45:13.464Z,12.23
2018-11-03T17:47:42.304Z,12.21
2018-11-03T17:50:12.163Z,12.27
2018-11-03T17:52:40.761Z,12.33
2018-11-03T17:55:09.731Z,12.31
2018-11-03T17:57:38.359Z,12.31
2018-11-03T18:00:10.891Z,12.34
2018-11-03T18:02:39.327Z,12.34
2018-11-03T18:05:08.284Z,12.30
2018-11-03T18:07:37.896Z,12.20
2018-11-03T18:10:08.330Z,12.24
2018-11-03T18:12:36.772Z,12.27
2018-11-03T18:15:06.092Z,12.13
2018-11-03T18:17:34.908Z,12.11
2018-11-03T18:20:03.620Z,12.11
2018-11-03T18:22:32.321Z,12.05
2018-11-03T18:25:01.136Z,12.13
2018-11-03T18:27:29.608Z,12.21
2018-11-03T18:29:58.279Z,12.25
2018-11-03T18:32:26.909Z,12.34
2018-11-03T18:35:02.063Z,12.23
2018-11-03T18:37:30.523Z,12.21
2018-11-03T18:39:59.012Z,12.13
2018-11-03T18:42:27.884Z,12.22
2018-11-03T18:44:56.430Z,12.29
2018-11-03T18:47:25.221Z,12.16
2018-11-03T18:49:53.654Z,12.29
2018-11-03T18:52:22.208Z,12.36
2018-11-03T18:54:50.749Z,12.38
2018-11-03T18:57:19.471Z,12.47
2018-11-03T18:59:47.984Z,12.51
2018-11-03T19:02:16.817Z,12.49
2018-11-03T19:04:45.326Z,12.48
2018-11-03T19:07:14.316Z,12.50
2018-11-03T19:09:42.820Z,12.48
2018-11-03T19:12:11.556Z,12.44
2018-11-03T19:14:40.065Z,12.34
2018-11-03T19:17:08.591Z,12.34
2018-11-03T19:19:37.445Z,12.26
2018-11-03T19:22:05.939Z,12.43
2018-11-03T19:24:34.629Z,12.45
2018-11-03T19:27:03.460Z,12.34
2018-11-03T19:29:31.956Z,12.44
2018-11-03T19:32:01.350Z,12.43
2018-11-03T19:34:29.708Z,12.41
2018-11-03T19:36:58.132Z,12.30
2018-11-03T19:39:26.644Z,12.48
2018-11-03T19:41:55.370Z,12.56
2018-11-03T19:44:23.995Z,12.58
2018-11-03T19:46:52.756Z,12.56
2018-11-03T19:49:21.213Z,12.70
2018-11-03T19:51:50.191Z,12.51
2018-11-03T19:54:25.501Z,12.36
2018-11-03T19:56:54.101Z,12.37
2018-11-03T19:59:22.697Z,12.55
2018-11-03T20:01:51.072Z,12.64
2018-11-03T20:04:19.528Z,12.69
2018-11-03T20:06:47.968Z,12.74
2018-11-03T20:09:16.590Z,12.77
2018-11-03T20:11:45.169Z,12.81
2018-11-03T20:14:13.801Z,12.64
2018-11-03T20:16:42.572Z,12.57
2018-11-03T20:19:11.330Z,12.66
2018-11-03T20:21:39.712Z,12.77
2018-11-03T20:24:08.187Z,12.61
2018-11-03T20:26:37.010Z,12.66
2018-11-03T20:29:05.749Z,12.68
2018-11-03T20:31:34.293Z,12.57
2018-11-03T20:34:02.737Z,12.37
2018-11-03T20:36:31.345Z,12.47
2018-11-03T20:38:59.755Z,12.56
2018-11-03T20:41:28.442Z,12.57
2018-11-03T20:43:57.244Z,12.70
2018-11-03T20:46:25.733Z,12.66
2018-11-03T20:48:54.501Z,12.69
2018-11-03T20:51:22.886Z,12.73
2018-11-03T20:53:51.474Z,12.66
2018-11-03T20:56:20.143Z,12.45
2018-11-03T20:58:48.588Z,12.32
2018-11-03T21:01:18.075Z,12.24
2018-11-03T21:03:46.597Z,12.19
2018-11-03T21:06:15.184Z,12.32
2018-11-03T21:08:43.781Z,12.32
2018-11-03T21:11:12.483Z,12.51
2018-11-03T21:13:41.115Z,12.58
2018-11-03T21:16:09.565Z,12.43
2018-11-03T21:18:38.368Z,12.16
2018-11-03T21:21:07.018Z,12.12
2018-11-03T21:23:35.909Z,12.32
2018-11-03T21:26:04.476Z,12.31
2018-11-03T21:28:33.197Z,12.17
2018-11-03T21:31:01.953Z,12.13
2018-11-03T21:33:30.590Z,12.25
2018-11-03T21:35:59.099Z,12.39
2018-11-03T21:38:27.701Z,12.53
2018-11-03T21:40:56.331Z,12.60
2018-11-03T21:43:24.993Z,12.38
2018-11-03T21:45:53.681Z,12.33
2018-11-03T21:48:22.361Z,12.45
2018-11-03T21:50:51.297Z,12.59
2018-11-03T21:53:20.139Z,12.63
2018-11-03T21:55:48.871Z,12.73
2018-11-03T21:58:18.045Z,12.60
2018-11-03T22:00:46.546Z,12.48
2018-11-03T22:03:14.956Z,12.44
2018-11-03T22:05:43.337Z,12.53
2018-11-03T22:08:12.899Z,12.43
2018-11-03T22:10:41.600Z,12.49
2018-11-03T22:13:09.976Z,12.55
2018-11-03T22:15:38.438Z,12.62
2018-11-03T22:18:06.785Z,12.62
2018-11-03T22:20:35.417Z,12.62
2018-11-03T22:23:04.585Z,12.64
2018-11-03T22:25:33.922Z,12.61
2018-11-03T22:28:02.492Z,12.48
2018-11-03T22:30:30.837Z,12.53
2018-11-03T22:32:59.326Z,12.52
2018-11-03T22:35:28.800Z,12.49
2018-11-03T22:37:57.171Z,12.30
2018-11-03T22:40:25.864Z,12.20
2018-11-03T22:42:54.774Z,12.08
2018-11-03T22:45:23.431Z,12.06
2018-11-03T22:47:52.423Z,12.16
2018-11-03T22:50:20.794Z,12.26
2018-11-03T22:52:49.229Z,12.32
2018-11-03T22:55:17.700Z,12.27
2018-11-03T22:57:46.470Z,12.23
2018-11-03T23:00:21.646Z,12.09
2018-11-03T23:02:50.038Z,12.06
2018-11-03T23:05:18.420Z,12.23
2018-11-03T23:07:47.054Z,12.26
2018-11-03T23:10:15.465Z,12.32
2018-11-03T23:12:44.183Z,12.44
2018-11-03T23:15:12.533Z,12.39
2018-11-03T23:17:41.135Z,12.44
2018-11-03T23:20:11.716Z,12.35
2018-11-03T23:22:40.254Z,12.13
2018-11-03T23:25:09.288Z,11.95
2018-11-03T23:27:37.886Z,12.06
2018-11-03T23:30:09.606Z,12.19
2018-11-03T23:32:38.250Z,12.19
2018-11-03T23:35:09.004Z,12.18
2018-11-03T23:37:37.999Z,12.14
2018-11-03T23:40:07.242Z,12.15
2018-11-03T23:42:36.168Z,12.24
2018-11-03T23:45:05.527Z,12.18
2018-11-03T23:47:34.202Z,12.25
2018-11-03T23:50:02.669Z,12.23
2018-11-03T23:52:32.312Z,12.03
2018-11-03T23:55:01.510Z,11.94
2018-11-03T23:57:30.173Z,11.97
2018-11-03T23:59:59.000Z,12.08
